sensor_id;sensor_type;location;lat;lon;timestamp;P1;durP1;ratioP1;P2;durP2;ratioP2
73452;SDS011;61687;56.232;43.854;2022-12-11T00:01:45;12.43;;;5.97;;
73452;SDS011;61687;56.232;43.854;2022-12-11T00:04:10;12.90;;;6.50;;
73452;SDS011;61687;56.232;43.854;2022-12-11T00:06:36;13.90;;;6.22;;
73452;SDS011;61687;56.232;43.854;2022-12-11T00:09:02;10.00;;;5.82;;
73452;SDS011;61687;56.232;43.854;2022-12-11T00:11:28;11.80;;;5.80;;
73452;SDS011;61687;56.232;43.854;2022-12-11T00:13:54;12.13;;;6.18;;
73452;SDS011;61687;56.232;43.854;2022-12-11T00:16:20;11.35;;;5.45;;
73452;SDS011;61687;56.232;43.854;2022-12-11T00:18:46;11.07;;;5.47;;
73452;SDS011;61687;56.232;43.854;2022-12-11T00:21:12;10.82;;;6.05;;
73452;SDS011;61687;56.232;43.854;2022-12-11T00:23:40;10.35;;;5.07;;
73452;SDS011;61687;56.232;43.854;2022-12-11T00:26:11;9.90;;;5.38;;
73452;SDS011;61687;56.232;43.854;2022-12-11T00:28:39;10.57;;;5.50;;
73452;SDS011;61687;56.232;43.854;2022-12-11T00:31:08;9.48;;;5.18;;
73452;SDS011;61687;56.232;43.854;2022-12-11T00:33:40;10.63;;;5.47;;
73452;SDS011;61687;56.232;43.854;2022-12-11T00:36:13;9.63;;;5.32;;
73452;SDS011;61687;56.232;43.854;2022-12-11T00:38:41;11.10;;;5.68;;
73452;SDS011;61687;56.232;43.854;2022-12-11T00:41:08;10.07;;;5.63;;
73452;SDS011;61687;56.232;43.854;2022-12-11T00:43:34;9.60;;;5.22;;
73452;SDS011;61687;56.232;43.854;2022-12-11T00:46:00;9.75;;;5.10;;
73452;SDS011;61687;56.232;43.854;2022-12-11T00:48:26;8.57;;;5.55;;
73452;SDS011;61687;56.232;43.854;2022-12-11T00:50:52;8.20;;;4.97;;
73452;SDS011;61687;56.232;43.854;2022-12-11T00:53:18;8.73;;;4.60;;
73452;SDS011;61687;56.232;43.854;2022-12-11T00:55:44;8.40;;;5.10;;
73452;SDS011;61687;56.232;43.854;2022-12-11T00:58:10;7.47;;;5.13;;
73452;SDS011;61687;56.232;43.854;2022-12-11T01:00:37;6.93;;;4.25;;
73452;SDS011;61687;56.232;43.854;2022-12-11T01:03:04;8.52;;;5.00;;
73452;SDS011;61687;56.232;43.854;2022-12-11T01:05:30;10.00;;;4.75;;
73452;SDS011;61687;56.232;43.854;2022-12-11T01:07:56;7.88;;;4.72;;
73452;SDS011;61687;56.232;43.854;2022-12-11T01:10:22;8.80;;;4.27;;
73452;SDS011;61687;56.232;43.854;2022-12-11T01:12:52;7.53;;;4.50;;
73452;SDS011;61687;56.232;43.854;2022-12-11T01:15:27;8.65;;;4.80;;
73452;SDS011;61687;56.232;43.854;2022-12-11T01:17:55;7.32;;;4.53;;
73452;SDS011;61687;56.232;43.854;2022-12-11T01:20:22;7.85;;;4.88;;
73452;SDS011;61687;56.232;43.854;2022-12-11T01:22:53;8.00;;;4.65;;
73452;SDS011;61687;56.232;43.854;2022-12-11T01:25:23;8.57;;;4.82;;
73452;SDS011;61687;56.232;43.854;2022-12-11T01:27:50;7.53;;;4.28;;
73452;SDS011;61687;56.232;43.854;2022-12-11T01:30:17;9.18;;;5.13;;
73452;SDS011;61687;56.232;43.854;2022-12-11T01:32:44;9.35;;;5.25;;
73452;SDS011;61687;56.232;43.854;2022-12-11T01:35:10;8.50;;;4.80;;
73452;SDS011;61687;56.232;43.854;2022-12-11T01:37:37;8.18;;;5.18;;
73452;SDS011;61687;56.232;43.854;2022-12-11T01:40:04;7.68;;;4.43;;
73452;SDS011;61687;56.232;43.854;2022-12-11T01:42:30;7.97;;;4.72;;
73452;SDS011;61687;56.232;43.854;2022-12-11T01:47:47;7.82;;;4.28;;
73452;SDS011;61687;56.232;43.854;2022-12-11T01:50:14;8.40;;;4.60;;
73452;SDS011;61687;56.232;43.854;2022-12-11T01:52:40;6.38;;;3.60;;
73452;SDS011;61687;56.232;43.854;2022-12-11T01:55:10;7.82;;;4.28;;
73452;SDS011;61687;56.232;43.854;2022-12-11T01:57:36;7.75;;;4.70;;
73452;SDS011;61687;56.232;43.854;2022-12-11T02:00:07;6.95;;;4.03;;
73452;SDS011;61687;56.232;43.854;2022-12-11T02:02:39;7.97;;;4.40;;
73452;SDS011;61687;56.232;43.854;2022-12-11T02:05:05;7.88;;;4.50;;
73452;SDS011;61687;56.232;43.854;2022-12-11T02:07:35;7.95;;;4.72;;
73452;SDS011;61687;56.232;43.854;2022-12-11T02:10:08;6.47;;;4.22;;
73452;SDS011;61687;56.232;43.854;2022-12-11T02:12:53;7.32;;;4.75;;
73452;SDS011;61687;56.232;43.854;2022-12-11T02:15:41;6.70;;;4.25;;
73452;SDS011;61687;56.232;43.854;2022-12-11T02:20:49;7.22;;;4.38;;
73452;SDS011;61687;56.232;43.854;2022-12-11T02:26:11;6.93;;;4.03;;
73452;SDS011;61687;56.232;43.854;2022-12-11T02:29:01;7.72;;;4.05;;
73452;SDS011;61687;56.232;43.854;2022-12-11T02:31:34;7.47;;;4.72;;
73452;SDS011;61687;56.232;43.854;2022-12-11T02:34:08;7.35;;;3.72;;
73452;SDS011;61687;56.232;43.854;2022-12-11T02:36:39;6.93;;;4.32;;
73452;SDS011;61687;56.232;43.854;2022-12-11T02:39:12;7.75;;;4.18;;
73452;SDS011;61687;56.232;43.854;2022-12-11T02:41:42;7.15;;;4.47;;
73452;SDS011;61687;56.232;43.854;2022-12-11T02:44:12;6.63;;;4.22;;
73452;SDS011;61687;56.232;43.854;2022-12-11T02:46:41;6.82;;;4.30;;
73452;SDS011;61687;56.232;43.854;2022-12-11T02:49:09;6.47;;;3.47;;
73452;SDS011;61687;56.232;43.854;2022-12-11T02:51:41;6.40;;;4.07;;
73452;SDS011;61687;56.232;43.854;2022-12-11T02:54:09;7.55;;;4.35;;
73452;SDS011;61687;56.232;43.854;2022-12-11T02:56:45;5.40;;;3.75;;
73452;SDS011;61687;56.232;43.854;2022-12-11T02:59:17;6.55;;;4.40;;
73452;SDS011;61687;56.232;43.854;2022-12-11T03:01:48;8.20;;;4.03;;
73452;SDS011;61687;56.232;43.854;2022-12-11T03:04:14;7.68;;;4.22;;
73452;SDS011;61687;56.232;43.854;2022-12-11T03:06:43;6.40;;;3.75;;
73452;SDS011;61687;56.232;43.854;2022-12-11T03:09:13;5.50;;;3.00;;
73452;SDS011;61687;56.232;43.854;2022-12-11T03:11:39;6.60;;;4.00;;
73452;SDS011;61687;56.232;43.854;2022-12-11T03:14:05;6.30;;;3.80;;
73452;SDS011;61687;56.232;43.854;2022-12-11T03:16:33;6.93;;;4.47;;
73452;SDS011;61687;56.232;43.854;2022-12-11T03:19:23;5.95;;;3.78;;
73452;SDS011;61687;56.232;43.854;2022-12-11T03:21:55;6.25;;;3.85;;
73452;SDS011;61687;56.232;43.854;2022-12-11T03:24:40;6.23;;;3.47;;
73452;SDS011;61687;56.232;43.854;2022-12-11T03:27:27;6.07;;;3.38;;
73452;SDS011;61687;56.232;43.854;2022-12-11T03:30:07;6.10;;;3.83;;
73452;SDS011;61687;56.232;43.854;2022-12-11T03:32:38;5.30;;;3.40;;
73452;SDS011;61687;56.232;43.854;2022-12-11T03:35:13;6.28;;;4.22;;
73452;SDS011;61687;56.232;43.854;2022-12-11T03:37:45;6.30;;;3.80;;
73452;SDS011;61687;56.232;43.854;2022-12-11T03:40:14;5.82;;;3.55;;
73452;SDS011;61687;56.232;43.854;2022-12-11T03:42:44;6.22;;;4.20;;
73452;SDS011;61687;56.232;43.854;2022-12-11T03:45:14;5.53;;;3.67;;
73452;SDS011;61687;56.232;43.854;2022-12-11T03:47:42;5.90;;;3.58;;
73452;SDS011;61687;56.232;43.854;2022-12-11T03:50:09;6.43;;;3.73;;
73452;SDS011;61687;56.232;43.854;2022-12-11T03:52:38;6.72;;;3.70;;
73452;SDS011;61687;56.232;43.854;2022-12-11T03:55:07;6.95;;;4.38;;
73452;SDS011;61687;56.232;43.854;2022-12-11T03:57:35;6.38;;;3.63;;
73452;SDS011;61687;56.232;43.854;2022-12-11T04:00:06;6.40;;;3.95;;
73452;SDS011;61687;56.232;43.854;2022-12-11T04:02:37;6.10;;;3.47;;
73452;SDS011;61687;56.232;43.854;2022-12-11T04:05:04;6.70;;;3.13;;
73452;SDS011;61687;56.232;43.854;2022-12-11T04:07:30;6.90;;;4.10;;
73452;SDS011;61687;56.232;43.854;2022-12-11T04:09:56;5.93;;;3.00;;
73452;SDS011;61687;56.232;43.854;2022-12-11T04:12:22;7.30;;;3.83;;
73452;SDS011;61687;56.232;43.854;2022-12-11T04:14:48;7.20;;;3.65;;
73452;SDS011;61687;56.232;43.854;2022-12-11T04:17:32;6.70;;;4.25;;
73452;SDS011;61687;56.232;43.854;2022-12-11T04:20:19;6.10;;;4.18;;
73452;SDS011;61687;56.232;43.854;2022-12-11T04:23:04;6.05;;;3.85;;
73452;SDS011;61687;56.232;43.854;2022-12-11T04:25:49;6.90;;;3.60;;
73452;SDS011;61687;56.232;43.854;2022-12-11T04:28:15;6.53;;;3.95;;
73452;SDS011;61687;56.232;43.854;2022-12-11T04:30:46;7.85;;;4.00;;
73452;SDS011;61687;56.232;43.854;2022-12-11T04:33:14;7.80;;;4.13;;
73452;SDS011;61687;56.232;43.854;2022-12-11T04:35:40;8.45;;;4.30;;
73452;SDS011;61687;56.232;43.854;2022-12-11T04:38:06;6.97;;;3.73;;
73452;SDS011;61687;56.232;43.854;2022-12-11T04:40:31;6.68;;;3.58;;
73452;SDS011;61687;56.232;43.854;2022-12-11T04:42:57;5.93;;;3.67;;
73452;SDS011;61687;56.232;43.854;2022-12-11T04:45:23;5.35;;;3.50;;
73452;SDS011;61687;56.232;43.854;2022-12-11T04:47:49;5.93;;;3.42;;
73452;SDS011;61687;56.232;43.854;2022-12-11T04:50:15;6.88;;;3.90;;
73452;SDS011;61687;56.232;43.854;2022-12-11T04:52:42;5.93;;;3.50;;
73452;SDS011;61687;56.232;43.854;2022-12-11T04:55:08;5.88;;;3.40;;
73452;SDS011;61687;56.232;43.854;2022-12-11T04:57:35;5.75;;;3.92;;
73452;SDS011;61687;56.232;43.854;2022-12-11T05:00:02;6.50;;;3.30;;
73452;SDS011;61687;56.232;43.854;2022-12-11T05:02:35;6.30;;;3.40;;
73452;SDS011;61687;56.232;43.854;2022-12-11T05:05:05;6.30;;;3.43;;
73452;SDS011;61687;56.232;43.854;2022-12-11T05:07:34;5.45;;;3.15;;
73452;SDS011;61687;56.232;43.854;2022-12-11T05:10:00;5.68;;;3.50;;
73452;SDS011;61687;56.232;43.854;2022-12-11T05:12:26;5.90;;;3.00;;
73452;SDS011;61687;56.232;43.854;2022-12-11T05:14:53;6.72;;;3.50;;
73452;SDS011;61687;56.232;43.854;2022-12-11T05:17:19;5.30;;;3.17;;
73452;SDS011;61687;56.232;43.854;2022-12-11T05:19:47;7.40;;;3.45;;
73452;SDS011;61687;56.232;43.854;2022-12-11T05:22:13;7.38;;;3.80;;
73452;SDS011;61687;56.232;43.854;2022-12-11T05:24:40;5.55;;;3.28;;
73452;SDS011;61687;56.232;43.854;2022-12-11T05:27:09;5.60;;;3.13;;
73452;SDS011;61687;56.232;43.854;2022-12-11T05:29:35;6.23;;;3.50;;
73452;SDS011;61687;56.232;43.854;2022-12-11T05:32:02;4.80;;;3.10;;
73452;SDS011;61687;56.232;43.854;2022-12-11T05:34:28;5.97;;;3.95;;
73452;SDS011;61687;56.232;43.854;2022-12-11T05:36:54;5.70;;;3.30;;
73452;SDS011;61687;56.232;43.854;2022-12-11T05:39:20;5.27;;;3.17;;
73452;SDS011;61687;56.232;43.854;2022-12-11T05:41:45;5.90;;;3.92;;
73452;SDS011;61687;56.232;43.854;2022-12-11T05:44:11;6.50;;;3.50;;
73452;SDS011;61687;56.232;43.854;2022-12-11T05:46:38;6.28;;;3.80;;
73452;SDS011;61687;56.232;43.854;2022-12-11T05:49:04;17.05;;;10.63;;
73452;SDS011;61687;56.232;43.854;2022-12-11T05:51:30;6.43;;;3.92;;
73452;SDS011;61687;56.232;43.854;2022-12-11T05:53:58;6.40;;;3.20;;
73452;SDS011;61687;56.232;43.854;2022-12-11T05:56:28;5.32;;;3.15;;
73452;SDS011;61687;56.232;43.854;2022-12-11T05:58:56;5.40;;;3.70;;
73452;SDS011;61687;56.232;43.854;2022-12-11T06:01:24;5.13;;;3.28;;
73452;SDS011;61687;56.232;43.854;2022-12-11T06:03:59;6.38;;;4.07;;
73452;SDS011;61687;56.232;43.854;2022-12-11T06:06:25;5.80;;;3.27;;
73452;SDS011;61687;56.232;43.854;2022-12-11T06:08:52;6.07;;;3.90;;
73452;SDS011;61687;56.232;43.854;2022-12-11T06:11:19;5.15;;;3.65;;
73452;SDS011;61687;56.232;43.854;2022-12-11T06:13:46;6.90;;;3.80;;
73452;SDS011;61687;56.232;43.854;2022-12-11T06:16:12;5.82;;;3.22;;
73452;SDS011;61687;56.232;43.854;2022-12-11T06:18:39;5.43;;;3.00;;
73452;SDS011;61687;56.232;43.854;2022-12-11T06:21:13;5.20;;;3.22;;
73452;SDS011;61687;56.232;43.854;2022-12-11T06:23:41;5.93;;;3.63;;
73452;SDS011;61687;56.232;43.854;2022-12-11T06:26:08;5.50;;;3.40;;
73452;SDS011;61687;56.232;43.854;2022-12-11T06:28:34;6.60;;;3.47;;
73452;SDS011;61687;56.232;43.854;2022-12-11T06:31:00;5.43;;;2.97;;
73452;SDS011;61687;56.232;43.854;2022-12-11T06:33:27;6.65;;;4.40;;
73452;SDS011;61687;56.232;43.854;2022-12-11T06:35:53;5.80;;;3.35;;
73452;SDS011;61687;56.232;43.854;2022-12-11T06:38:19;5.57;;;3.60;;
73452;SDS011;61687;56.232;43.854;2022-12-11T06:40:45;6.07;;;3.88;;
73452;SDS011;61687;56.232;43.854;2022-12-11T06:43:18;7.95;;;3.78;;
73452;SDS011;61687;56.232;43.854;2022-12-11T06:45:44;6.83;;;4.30;;
73452;SDS011;61687;56.232;43.854;2022-12-11T06:48:10;6.00;;;3.40;;
73452;SDS011;61687;56.232;43.854;2022-12-11T06:50:36;5.40;;;2.90;;
73452;SDS011;61687;56.232;43.854;2022-12-11T06:53:03;6.15;;;3.45;;
73452;SDS011;61687;56.232;43.854;2022-12-11T06:55:29;6.47;;;4.20;;
73452;SDS011;61687;56.232;43.854;2022-12-11T06:57:54;6.28;;;4.20;;
73452;SDS011;61687;56.232;43.854;2022-12-11T07:00:20;4.80;;;3.07;;
73452;SDS011;61687;56.232;43.854;2022-12-11T07:02:46;5.82;;;3.83;;
73452;SDS011;61687;56.232;43.854;2022-12-11T07:05:12;6.43;;;3.93;;
73452;SDS011;61687;56.232;43.854;2022-12-11T07:07:38;5.00;;;3.30;;
73452;SDS011;61687;56.232;43.854;2022-12-11T07:10:04;5.20;;;3.35;;
73452;SDS011;61687;56.232;43.854;2022-12-11T07:12:30;5.30;;;3.70;;
73452;SDS011;61687;56.232;43.854;2022-12-11T07:14:55;6.82;;;4.35;;
73452;SDS011;61687;56.232;43.854;2022-12-11T07:17:21;5.47;;;3.75;;
73452;SDS011;61687;56.232;43.854;2022-12-11T07:19:47;5.90;;;3.63;;
73452;SDS011;61687;56.232;43.854;2022-12-11T07:22:13;4.72;;;3.05;;
73452;SDS011;61687;56.232;43.854;2022-12-11T07:24:38;5.60;;;3.70;;
73452;SDS011;61687;56.232;43.854;2022-12-11T07:27:04;5.72;;;3.78;;
73452;SDS011;61687;56.232;43.854;2022-12-11T07:29:30;6.10;;;3.22;;
73452;SDS011;61687;56.232;43.854;2022-12-11T07:31:56;5.60;;;3.50;;
73452;SDS011;61687;56.232;43.854;2022-12-11T07:34:22;7.05;;;3.20;;
73452;SDS011;61687;56.232;43.854;2022-12-11T07:36:48;5.88;;;3.47;;
73452;SDS011;61687;56.232;43.854;2022-12-11T07:39:13;5.37;;;3.13;;
73452;SDS011;61687;56.232;43.854;2022-12-11T07:41:40;6.03;;;3.97;;
73452;SDS011;61687;56.232;43.854;2022-12-11T07:44:09;5.55;;;3.63;;
73452;SDS011;61687;56.232;43.854;2022-12-11T07:46:36;5.68;;;4.20;;
73452;SDS011;61687;56.232;43.854;2022-12-11T07:49:03;6.90;;;3.30;;
73452;SDS011;61687;56.232;43.854;2022-12-11T07:51:31;5.78;;;3.42;;
73452;SDS011;61687;56.232;43.854;2022-12-11T07:54:03;6.15;;;4.10;;
73452;SDS011;61687;56.232;43.854;2022-12-11T07:56:31;5.32;;;3.55;;
73452;SDS011;61687;56.232;43.854;2022-12-11T07:59:01;6.03;;;3.70;;
73452;SDS011;61687;56.232;43.854;2022-12-11T08:01:29;6.23;;;3.33;;
73452;SDS011;61687;56.232;43.854;2022-12-11T08:03:56;5.13;;;3.17;;
73452;SDS011;61687;56.232;43.854;2022-12-11T08:06:27;5.85;;;3.72;;
73452;SDS011;61687;56.232;43.854;2022-12-11T08:08:55;6.28;;;3.90;;
73452;SDS011;61687;56.232;43.854;2022-12-11T08:11:21;5.95;;;3.28;;
73452;SDS011;61687;56.232;43.854;2022-12-11T08:13:47;7.90;;;3.47;;
73452;SDS011;61687;56.232;43.854;2022-12-11T08:16:14;5.55;;;3.40;;
73452;SDS011;61687;56.232;43.854;2022-12-11T08:18:41;6.60;;;3.90;;
73452;SDS011;61687;56.232;43.854;2022-12-11T08:21:12;5.75;;;3.67;;
73452;SDS011;61687;56.232;43.854;2022-12-11T08:23:40;7.03;;;3.47;;
73452;SDS011;61687;56.232;43.854;2022-12-11T08:26:07;6.57;;;3.30;;
73452;SDS011;61687;56.232;43.854;2022-12-11T08:28:35;6.95;;;3.20;;
73452;SDS011;61687;56.232;43.854;2022-12-11T08:31:05;6.30;;;3.75;;
73452;SDS011;61687;56.232;43.854;2022-12-11T08:33:33;5.07;;;3.55;;
73452;SDS011;61687;56.232;43.854;2022-12-11T08:36:03;8.13;;;4.97;;
73452;SDS011;61687;56.232;43.854;2022-12-11T08:38:33;7.90;;;4.67;;
73452;SDS011;61687;56.232;43.854;2022-12-11T08:41:06;7.75;;;4.70;;
73452;SDS011;61687;56.232;43.854;2022-12-11T08:43:34;7.43;;;4.32;;
73452;SDS011;61687;56.232;43.854;2022-12-11T08:45:59;7.03;;;3.70;;
73452;SDS011;61687;56.232;43.854;2022-12-11T08:48:25;7.10;;;4.27;;
73452;SDS011;61687;56.232;43.854;2022-12-11T08:50:51;8.50;;;4.90;;
73452;SDS011;61687;56.232;43.854;2022-12-11T08:53:17;7.87;;;4.40;;
73452;SDS011;61687;56.232;43.854;2022-12-11T08:55:42;7.72;;;4.68;;
73452;SDS011;61687;56.232;43.854;2022-12-11T08:58:08;9.02;;;4.28;;
73452;SDS011;61687;56.232;43.854;2022-12-11T09:00:34;7.78;;;4.10;;
73452;SDS011;61687;56.232;43.854;2022-12-11T09:03:00;11.15;;;5.28;;
73452;SDS011;61687;56.232;43.854;2022-12-11T09:05:26;9.52;;;5.00;;
73452;SDS011;61687;56.232;43.854;2022-12-11T09:07:52;10.77;;;4.87;;
73452;SDS011;61687;56.232;43.854;2022-12-11T09:10:19;11.27;;;5.47;;
73452;SDS011;61687;56.232;43.854;2022-12-11T09:12:45;12.25;;;5.63;;
73452;SDS011;61687;56.232;43.854;2022-12-11T09:15:11;9.00;;;4.87;;
73452;SDS011;61687;56.232;43.854;2022-12-11T09:17:37;9.50;;;5.22;;
73452;SDS011;61687;56.232;43.854;2022-12-11T09:20:03;10.37;;;5.00;;
73452;SDS011;61687;56.232;43.854;2022-12-11T09:22:30;6.68;;;4.30;;
73452;SDS011;61687;56.232;43.854;2022-12-11T09:24:58;7.82;;;3.85;;
73452;SDS011;61687;56.232;43.854;2022-12-11T09:27:24;8.30;;;3.85;;
73452;SDS011;61687;56.232;43.854;2022-12-11T09:29:49;6.68;;;4.20;;
73452;SDS011;61687;56.232;43.854;2022-12-11T09:32:15;5.88;;;4.13;;
73452;SDS011;61687;56.232;43.854;2022-12-11T09:34:41;7.40;;;4.50;;
73452;SDS011;61687;56.232;43.854;2022-12-11T09:37:07;6.18;;;4.00;;
73452;SDS011;61687;56.232;43.854;2022-12-11T09:39:33;6.07;;;3.90;;
73452;SDS011;61687;56.232;43.854;2022-12-11T09:42:12;8.00;;;4.85;;
73452;SDS011;61687;56.232;43.854;2022-12-11T09:44:54;6.63;;;4.20;;
73452;SDS011;61687;56.232;43.854;2022-12-11T09:50:12;9.20;;;5.03;;
73452;SDS011;61687;56.232;43.854;2022-12-11T09:53:04;7.63;;;4.28;;
73452;SDS011;61687;56.232;43.854;2022-12-11T09:55:40;6.70;;;4.03;;
73452;SDS011;61687;56.232;43.854;2022-12-11T10:04:03;6.70;;;3.28;;
73452;SDS011;61687;56.232;43.854;2022-12-11T10:06:42;6.95;;;4.13;;
73452;SDS011;61687;56.232;43.854;2022-12-11T10:17:20;7.07;;;3.78;;
73452;SDS011;61687;56.232;43.854;2022-12-11T10:19:52;7.00;;;4.45;;
73452;SDS011;61687;56.232;43.854;2022-12-11T10:22:20;6.15;;;4.30;;
73452;SDS011;61687;56.232;43.854;2022-12-11T10:27:36;5.63;;;4.22;;
73452;SDS011;61687;56.232;43.854;2022-12-11T10:32:50;7.63;;;3.92;;
73452;SDS011;61687;56.232;43.854;2022-12-11T10:35:43;8.15;;;4.55;;
73452;SDS011;61687;56.232;43.854;2022-12-11T10:38:14;8.50;;;5.18;;
73452;SDS011;61687;56.232;43.854;2022-12-11T10:40:45;10.30;;;5.05;;
73452;SDS011;61687;56.232;43.854;2022-12-11T10:43:16;13.18;;;5.43;;
73452;SDS011;61687;56.232;43.854;2022-12-11T10:45:49;7.43;;;4.53;;
73452;SDS011;61687;56.232;43.854;2022-12-11T10:48:16;6.85;;;4.38;;
73452;SDS011;61687;56.232;43.854;2022-12-11T10:50:42;7.83;;;3.77;;
73452;SDS011;61687;56.232;43.854;2022-12-11T10:53:19;7.10;;;4.82;;
73452;SDS011;61687;56.232;43.854;2022-12-11T10:55:46;6.70;;;4.20;;
73452;SDS011;61687;56.232;43.854;2022-12-11T10:58:20;7.65;;;3.97;;
73452;SDS011;61687;56.232;43.854;2022-12-11T11:03:29;7.22;;;4.53;;
73452;SDS011;61687;56.232;43.854;2022-12-11T11:08:42;9.93;;;4.05;;
73452;SDS011;61687;56.232;43.854;2022-12-11T11:11:35;9.65;;;5.40;;
73452;SDS011;61687;56.232;43.854;2022-12-11T11:14:03;10.95;;;5.57;;
73452;SDS011;61687;56.232;43.854;2022-12-11T11:16:31;10.55;;;5.97;;
73452;SDS011;61687;56.232;43.854;2022-12-11T11:19:01;11.25;;;5.20;;
73452;SDS011;61687;56.232;43.854;2022-12-11T11:21:28;16.40;;;7.80;;
73452;SDS011;61687;56.232;43.854;2022-12-11T11:23:56;9.65;;;5.07;;
73452;SDS011;61687;56.232;43.854;2022-12-11T11:26:22;11.55;;;6.07;;
73452;SDS011;61687;56.232;43.854;2022-12-11T11:28:50;9.35;;;5.45;;
73452;SDS011;61687;56.232;43.854;2022-12-11T11:31:17;8.63;;;5.00;;
73452;SDS011;61687;56.232;43.854;2022-12-11T11:36:21;6.43;;;4.03;;
73452;SDS011;61687;56.232;43.854;2022-12-11T11:38:53;9.13;;;5.13;;
73452;SDS011;61687;56.232;43.854;2022-12-11T11:47:26;10.45;;;5.70;;
73452;SDS011;61687;56.232;43.854;2022-12-11T11:50:00;12.07;;;5.70;;
73452;SDS011;61687;56.232;43.854;2022-12-11T11:52:37;8.25;;;5.05;;
73452;SDS011;61687;56.232;43.854;2022-12-11T11:55:13;9.95;;;5.50;;
73452;SDS011;61687;56.232;43.854;2022-12-11T11:57:52;9.30;;;5.35;;
73452;SDS011;61687;56.232;43.854;2022-12-11T12:00:20;9.27;;;5.30;;
73452;SDS011;61687;56.232;43.854;2022-12-11T12:02:48;8.27;;;5.63;;
73452;SDS011;61687;56.232;43.854;2022-12-11T12:05:22;10.23;;;5.45;;
73452;SDS011;61687;56.232;43.854;2022-12-11T12:10:37;9.55;;;4.80;;
73452;SDS011;61687;56.232;43.854;2022-12-11T12:15:42;7.37;;;4.63;;
73452;SDS011;61687;56.232;43.854;2022-12-11T12:21:39;7.93;;;5.03;;
73452;SDS011;61687;56.232;43.854;2022-12-11T12:26:35;10.37;;;4.90;;
73452;SDS011;61687;56.232;43.854;2022-12-11T12:29:19;8.98;;;5.90;;
73452;SDS011;61687;56.232;43.854;2022-12-11T12:32:02;9.35;;;4.82;;
73452;SDS011;61687;56.232;43.854;2022-12-11T12:42:57;11.10;;;6.13;;
73452;SDS011;61687;56.232;43.854;2022-12-11T12:45:29;12.07;;;6.03;;
73452;SDS011;61687;56.232;43.854;2022-12-11T12:48:04;12.68;;;6.55;;
73452;SDS011;61687;56.232;43.854;2022-12-11T12:50:36;14.53;;;6.60;;
73452;SDS011;61687;56.232;43.854;2022-12-11T12:53:06;15.55;;;7.43;;
73452;SDS011;61687;56.232;43.854;2022-12-11T12:55:40;13.65;;;7.07;;
73452;SDS011;61687;56.232;43.854;2022-12-11T12:58:21;13.57;;;6.60;;
73452;SDS011;61687;56.232;43.854;2022-12-11T13:00:50;12.35;;;6.38;;
73452;SDS011;61687;56.232;43.854;2022-12-11T13:08:38;9.85;;;5.40;;
73452;SDS011;61687;56.232;43.854;2022-12-11T13:11:04;9.68;;;5.15;;
73452;SDS011;61687;56.232;43.854;2022-12-11T13:16:05;9.20;;;5.47;;
73452;SDS011;61687;56.232;43.854;2022-12-11T13:18:50;10.00;;;5.15;;
73452;SDS011;61687;56.232;43.854;2022-12-11T13:21:36;15.40;;;5.90;;
73452;SDS011;61687;56.232;43.854;2022-12-11T13:26:38;7.80;;;4.90;;
73452;SDS011;61687;56.232;43.854;2022-12-11T13:29:05;9.00;;;4.93;;
73452;SDS011;61687;56.232;43.854;2022-12-11T13:31:35;8.88;;;5.03;;
73452;SDS011;61687;56.232;43.854;2022-12-11T13:34:21;9.32;;;5.05;;
73452;SDS011;61687;56.232;43.854;2022-12-11T13:36:49;7.38;;;5.13;;
73452;SDS011;61687;56.232;43.854;2022-12-11T13:39:24;8.05;;;4.97;;
73452;SDS011;61687;56.232;43.854;2022-12-11T13:42:05;8.52;;;5.75;;
73452;SDS011;61687;56.232;43.854;2022-12-11T13:44:45;8.98;;;5.18;;
73452;SDS011;61687;56.232;43.854;2022-12-11T13:47:13;8.27;;;5.20;;
73452;SDS011;61687;56.232;43.854;2022-12-11T13:49:43;8.45;;;4.72;;
73452;SDS011;61687;56.232;43.854;2022-12-11T13:52:15;7.88;;;4.65;;
73452;SDS011;61687;56.232;43.854;2022-12-11T13:54:47;8.32;;;4.78;;
73452;SDS011;61687;56.232;43.854;2022-12-11T13:57:16;8.18;;;5.18;;
73452;SDS011;61687;56.232;43.854;2022-12-11T13:59:49;9.25;;;5.68;;
73452;SDS011;61687;56.232;43.854;2022-12-11T14:02:22;10.15;;;5.03;;
73452;SDS011;61687;56.232;43.854;2022-12-11T14:04:58;8.18;;;4.63;;
73452;SDS011;61687;56.232;43.854;2022-12-11T14:07:31;8.90;;;4.72;;
73452;SDS011;61687;56.232;43.854;2022-12-11T14:10:02;9.43;;;5.25;;
73452;SDS011;61687;56.232;43.854;2022-12-11T14:12:32;15.13;;;6.30;;
73452;SDS011;61687;56.232;43.854;2022-12-11T14:14:58;13.23;;;7.18;;
73452;SDS011;61687;56.232;43.854;2022-12-11T14:17:30;14.90;;;7.60;;
73452;SDS011;61687;56.232;43.854;2022-12-11T14:19:59;14.57;;;7.07;;
73452;SDS011;61687;56.232;43.854;2022-12-11T14:22:31;13.20;;;6.57;;
73452;SDS011;61687;56.232;43.854;2022-12-11T14:24:58;16.05;;;7.78;;
73452;SDS011;61687;56.232;43.854;2022-12-11T14:27:29;14.48;;;6.80;;
73452;SDS011;61687;56.232;43.854;2022-12-11T14:29:55;11.25;;;6.30;;
73452;SDS011;61687;56.232;43.854;2022-12-11T14:32:30;9.35;;;4.80;;
73452;SDS011;61687;56.232;43.854;2022-12-11T14:35:03;10.85;;;5.80;;
73452;SDS011;61687;56.232;43.854;2022-12-11T14:37:35;10.60;;;6.03;;
73452;SDS011;61687;56.232;43.854;2022-12-11T14:40:02;8.70;;;4.60;;
73452;SDS011;61687;56.232;43.854;2022-12-11T14:42:33;9.23;;;5.15;;
73452;SDS011;61687;56.232;43.854;2022-12-11T14:47:37;8.40;;;4.95;;
73452;SDS011;61687;56.232;43.854;2022-12-11T14:52:42;10.55;;;5.93;;
73452;SDS011;61687;56.232;43.854;2022-12-11T14:55:49;8.27;;;5.40;;
73452;SDS011;61687;56.232;43.854;2022-12-11T14:58:13;11.43;;;6.10;;
73452;SDS011;61687;56.232;43.854;2022-12-11T15:00:43;7.38;;;5.13;;
73452;SDS011;61687;56.232;43.854;2022-12-11T15:03:23;7.45;;;4.35;;
73452;SDS011;61687;56.232;43.854;2022-12-11T15:05:56;8.68;;;5.00;;
73452;SDS011;61687;56.232;43.854;2022-12-11T15:13:22;7.27;;;4.53;;
73452;SDS011;61687;56.232;43.854;2022-12-11T15:15:48;9.43;;;5.22;;
73452;SDS011;61687;56.232;43.854;2022-12-11T15:18:19;10.70;;;4.47;;
73452;SDS011;61687;56.232;43.854;2022-12-11T15:20:53;7.80;;;4.68;;
73452;SDS011;61687;56.232;43.854;2022-12-11T15:23:22;8.13;;;4.32;;
73452;SDS011;61687;56.232;43.854;2022-12-11T15:25:49;6.37;;;4.20;;
73452;SDS011;61687;56.232;43.854;2022-12-11T15:30:59;7.45;;;4.47;;
73452;SDS011;61687;56.232;43.854;2022-12-11T15:33:29;7.47;;;4.35;;
73452;SDS011;61687;56.232;43.854;2022-12-11T15:35:59;6.70;;;4.30;;
73452;SDS011;61687;56.232;43.854;2022-12-11T15:38:35;8.02;;;4.30;;
73452;SDS011;61687;56.232;43.854;2022-12-11T15:41:05;7.57;;;4.57;;
73452;SDS011;61687;56.232;43.854;2022-12-11T15:43:37;7.82;;;4.53;;
73452;SDS011;61687;56.232;43.854;2022-12-11T15:46:04;6.95;;;4.20;;
73452;SDS011;61687;56.232;43.854;2022-12-11T15:48:30;7.72;;;4.80;;
73452;SDS011;61687;56.232;43.854;2022-12-11T15:50:57;8.18;;;4.60;;
73452;SDS011;61687;56.232;43.854;2022-12-11T15:53:23;8.43;;;5.47;;
73452;SDS011;61687;56.232;43.854;2022-12-11T15:55:49;10.90;;;5.88;;
73452;SDS011;61687;56.232;43.854;2022-12-11T15:58:16;7.78;;;5.00;;
73452;SDS011;61687;56.232;43.854;2022-12-11T16:00:44;7.53;;;4.67;;
73452;SDS011;61687;56.232;43.854;2022-12-11T16:03:15;6.80;;;3.72;;
73452;SDS011;61687;56.232;43.854;2022-12-11T16:05:43;7.05;;;4.28;;
73452;SDS011;61687;56.232;43.854;2022-12-11T16:08:13;6.90;;;4.05;;
73452;SDS011;61687;56.232;43.854;2022-12-11T16:10:41;7.07;;;4.60;;
73452;SDS011;61687;56.232;43.854;2022-12-11T16:13:07;7.17;;;3.97;;
73452;SDS011;61687;56.232;43.854;2022-12-11T16:15:35;7.70;;;4.05;;